KMMK 170553Z AUTO 32003KT 10SM OVC013 M01/M03 A3034 RMK AO2 SLP277 T10061033 10000 21011 58019